sensor_id;sensor_type;location;lat;lon;timestamp;P1;durP1;ratioP1;P2;durP2;ratioP2
37831;SDS011;23671;38.090;-122.570;2022-11-18T00:01:17;1.63;;;1.40;;
37831;SDS011;23671;38.090;-122.570;2022-11-18T00:03:46;2.35;;;1.45;;
37831;SDS011;23671;38.090;-122.570;2022-11-18T00:06:21;1.98;;;1.50;;
37831;SDS011;23671;38.090;-122.570;2022-11-18T00:08:49;1.33;;;1.23;;
37831;SDS011;23671;38.090;-122.570;2022-11-18T00:11:18;1.45;;;1.10;;
37831;SDS011;23671;38.090;-122.570;2022-11-18T00:14:09;1.45;;;1.17;;
37831;SDS011;23671;38.090;-122.570;2022-11-18T00:16:54;3.63;;;1.08;;
37831;SDS011;23671;38.090;-122.570;2022-11-18T00:19:27;1.30;;;1.20;;
37831;SDS011;23671;38.090;-122.570;2022-11-18T00:21:55;1.35;;;1.20;;
37831;SDS011;23671;38.090;-122.570;2022-11-18T00:24:23;1.48;;;1.38;;
37831;SDS011;23671;38.090;-122.570;2022-11-18T00:26:50;1.67;;;1.30;;
37831;SDS011;23671;38.090;-122.570;2022-11-18T00:29:18;1.58;;;1.30;;
37831;SDS011;23671;38.090;-122.570;2022-11-18T00:31:46;1.75;;;1.38;;
37831;SDS011;23671;38.090;-122.570;2022-11-18T00:34:13;1.25;;;1.15;;
37831;SDS011;23671;38.090;-122.570;2022-11-18T00:36:42;1.45;;;1.25;;
37831;SDS011;23671;38.090;-122.570;2022-11-18T00:39:10;2.30;;;1.50;;
37831;SDS011;23671;38.090;-122.570;2022-11-18T00:41:38;3.05;;;1.50;;
37831;SDS011;23671;38.090;-122.570;2022-11-18T00:44:24;1.47;;;1.30;;
37831;SDS011;23671;38.090;-122.570;2022-11-18T00:46:51;3.08;;;1.20;;
37831;SDS011;23671;38.090;-122.570;2022-11-18T00:49:18;2.35;;;1.20;;
37831;SDS011;23671;38.090;-122.570;2022-11-18T00:51:45;2.35;;;1.40;;
37831;SDS011;23671;38.090;-122.570;2022-11-18T00:54:12;1.75;;;1.30;;
37831;SDS011;23671;38.090;-122.570;2022-11-18T00:56:39;1.20;;;1.13;;
37831;SDS011;23671;38.090;-122.570;2022-11-18T00:59:06;1.38;;;1.25;;
37831;SDS011;23671;38.090;-122.570;2022-11-18T01:01:33;2.97;;;1.38;;
37831;SDS011;23671;38.090;-122.570;2022-11-18T01:04:01;1.75;;;1.25;;
37831;SDS011;23671;38.090;-122.570;2022-11-18T01:06:28;1.30;;;1.17;;
37831;SDS011;23671;38.090;-122.570;2022-11-18T01:08:55;1.50;;;1.10;;
37831;SDS011;23671;38.090;-122.570;2022-11-18T01:11:22;1.55;;;1.00;;
37831;SDS011;23671;38.090;-122.570;2022-11-18T01:14:07;1.20;;;1.10;;
37831;SDS011;23671;38.090;-122.570;2022-11-18T01:16:34;1.23;;;1.08;;
37831;SDS011;23671;38.090;-122.570;2022-11-18T01:19:01;1.25;;;1.15;;
37831;SDS011;23671;38.090;-122.570;2022-11-18T01:21:28;1.45;;;1.35;;
37831;SDS011;23671;38.090;-122.570;2022-11-18T01:23:55;1.70;;;1.20;;
37831;SDS011;23671;38.090;-122.570;2022-11-18T01:26:22;1.75;;;1.20;;
37831;SDS011;23671;38.090;-122.570;2022-11-18T01:28:49;1.27;;;1.10;;
37831;SDS011;23671;38.090;-122.570;2022-11-18T01:31:21;1.42;;;1.20;;
37831;SDS011;23671;38.090;-122.570;2022-11-18T01:33:49;2.28;;;1.10;;
37831;SDS011;23671;38.090;-122.570;2022-11-18T01:36:16;1.23;;;1.13;;
37831;SDS011;23671;38.090;-122.570;2022-11-18T01:38:48;3.58;;;1.20;;
37831;SDS011;23671;38.090;-122.570;2022-11-18T01:41:16;1.20;;;1.10;;
37831;SDS011;23671;38.090;-122.570;2022-11-18T01:43:52;1.00;;;1.00;;
37831;SDS011;23671;38.090;-122.570;2022-11-18T01:46:21;1.50;;;1.00;;
37831;SDS011;23671;38.090;-122.570;2022-11-18T01:51:41;1.55;;;1.13;;
37831;SDS011;23671;38.090;-122.570;2022-11-18T01:54:23;1.40;;;1.27;;
37831;SDS011;23671;38.090;-122.570;2022-11-18T01:56:56;1.20;;;0.90;;
37831;SDS011;23671;38.090;-122.570;2022-11-18T01:59:32;1.58;;;1.25;;
37831;SDS011;23671;38.090;-122.570;2022-11-18T02:02:05;1.38;;;1.13;;
37831;SDS011;23671;38.090;-122.570;2022-11-18T02:04:36;2.30;;;0.90;;
37831;SDS011;23671;38.090;-122.570;2022-11-18T02:07:06;1.88;;;1.20;;
37831;SDS011;23671;38.090;-122.570;2022-11-18T02:09:35;2.33;;;1.20;;
37831;SDS011;23671;38.090;-122.570;2022-11-18T02:12:03;1.25;;;1.00;;
37831;SDS011;23671;38.090;-122.570;2022-11-18T02:14:32;2.70;;;1.23;;
37831;SDS011;23671;38.090;-122.570;2022-11-18T02:17:27;1.77;;;1.20;;
37831;SDS011;23671;38.090;-122.570;2022-11-18T02:23:15;1.65;;;1.00;;
37831;SDS011;23671;38.090;-122.570;2022-11-18T02:28:57;2.53;;;1.25;;
37831;SDS011;23671;38.090;-122.570;2022-11-18T02:31:56;2.13;;;1.38;;
37831;SDS011;23671;38.090;-122.570;2022-11-18T02:34:35;1.95;;;1.08;;
37831;SDS011;23671;38.090;-122.570;2022-11-18T02:42:44;1.70;;;1.27;;
37831;SDS011;23671;38.090;-122.570;2022-11-18T02:45:21;1.65;;;1.10;;
37831;SDS011;23671;38.090;-122.570;2022-11-18T02:47:49;2.43;;;1.53;;
37831;SDS011;23671;38.090;-122.570;2022-11-18T02:50:21;1.65;;;1.35;;
37831;SDS011;23671;38.090;-122.570;2022-11-18T02:52:56;3.42;;;1.55;;
37831;SDS011;23671;38.090;-122.570;2022-11-18T02:55:27;1.30;;;1.20;;
37831;SDS011;23671;38.090;-122.570;2022-11-18T02:57:57;1.58;;;1.10;;
37831;SDS011;23671;38.090;-122.570;2022-11-18T03:00:26;2.30;;;1.30;;
37831;SDS011;23671;38.090;-122.570;2022-11-18T03:02:53;2.47;;;1.63;;
37831;SDS011;23671;38.090;-122.570;2022-11-18T03:05:29;2.60;;;1.52;;
37831;SDS011;23671;38.090;-122.570;2022-11-18T03:08:08;2.28;;;1.50;;
37831;SDS011;23671;38.090;-122.570;2022-11-18T03:10:53;2.20;;;1.33;;
37831;SDS011;23671;38.090;-122.570;2022-11-18T03:13:34;2.92;;;1.58;;
37831;SDS011;23671;38.090;-122.570;2022-11-18T03:16:13;2.72;;;1.50;;
37831;SDS011;23671;38.090;-122.570;2022-11-18T03:18:52;2.33;;;1.50;;
37831;SDS011;23671;38.090;-122.570;2022-11-18T03:21:42;2.20;;;1.48;;
37831;SDS011;23671;38.090;-122.570;2022-11-18T03:24:27;4.38;;;1.80;;
37831;SDS011;23671;38.090;-122.570;2022-11-18T03:27:01;2.78;;;1.67;;
37831;SDS011;23671;38.090;-122.570;2022-11-18T03:29:38;2.40;;;1.30;;
37831;SDS011;23671;38.090;-122.570;2022-11-18T03:32:14;2.45;;;1.80;;
37831;SDS011;23671;38.090;-122.570;2022-11-18T03:34:49;2.47;;;1.58;;
37831;SDS011;23671;38.090;-122.570;2022-11-18T03:37:27;2.40;;;1.75;;
37831;SDS011;23671;38.090;-122.570;2022-11-18T03:40:01;2.10;;;1.45;;
37831;SDS011;23671;38.090;-122.570;2022-11-18T03:42:40;3.90;;;1.70;;
37831;SDS011;23671;38.090;-122.570;2022-11-18T03:45:23;2.15;;;1.75;;
37831;SDS011;23671;38.090;-122.570;2022-11-18T03:47:54;2.80;;;1.80;;
37831;SDS011;23671;38.090;-122.570;2022-11-18T03:50:29;2.35;;;1.70;;
37831;SDS011;23671;38.090;-122.570;2022-11-18T03:53:00;2.45;;;1.70;;
37831;SDS011;23671;38.090;-122.570;2022-11-18T03:55:29;3.00;;;1.95;;
37831;SDS011;23671;38.090;-122.570;2022-11-18T04:03:05;2.92;;;1.63;;
37831;SDS011;23671;38.090;-122.570;2022-11-18T04:05:34;1.95;;;1.35;;
37831;SDS011;23671;38.090;-122.570;2022-11-18T04:08:04;5.28;;;2.03;;
37831;SDS011;23671;38.090;-122.570;2022-11-18T04:10:58;1.95;;;1.75;;
37831;SDS011;23671;38.090;-122.570;2022-11-18T04:13:34;2.95;;;1.90;;
37831;SDS011;23671;38.090;-122.570;2022-11-18T04:16:02;2.37;;;1.60;;
37831;SDS011;23671;38.090;-122.570;2022-11-18T04:20:58;2.83;;;2.03;;
37831;SDS011;23671;38.090;-122.570;2022-11-18T04:23:25;2.30;;;1.75;;
37831;SDS011;23671;38.090;-122.570;2022-11-18T04:25:52;3.42;;;2.20;;
37831;SDS011;23671;38.090;-122.570;2022-11-18T04:28:19;3.13;;;1.90;;
37831;SDS011;23671;38.090;-122.570;2022-11-18T04:30:46;3.05;;;2.22;;
37831;SDS011;23671;38.090;-122.570;2022-11-18T04:33:15;2.53;;;1.80;;
37831;SDS011;23671;38.090;-122.570;2022-11-18T04:35:42;4.30;;;2.65;;
37831;SDS011;23671;38.090;-122.570;2022-11-18T04:38:10;3.97;;;2.20;;
37831;SDS011;23671;38.090;-122.570;2022-11-18T04:40:37;2.90;;;2.10;;
37831;SDS011;23671;38.090;-122.570;2022-11-18T04:43:04;2.65;;;1.98;;
37831;SDS011;23671;38.090;-122.570;2022-11-18T04:45:31;4.05;;;2.25;;
37831;SDS011;23671;38.090;-122.570;2022-11-18T04:47:58;3.80;;;2.40;;
37831;SDS011;23671;38.090;-122.570;2022-11-18T04:50:25;4.53;;;2.47;;
37831;SDS011;23671;38.090;-122.570;2022-11-18T04:52:52;2.88;;;2.13;;
37831;SDS011;23671;38.090;-122.570;2022-11-18T04:55:19;3.58;;;2.35;;
37831;SDS011;23671;38.090;-122.570;2022-11-18T04:57:46;5.72;;;2.42;;
37831;SDS011;23671;38.090;-122.570;2022-11-18T05:00:13;5.60;;;2.85;;
37831;SDS011;23671;38.090;-122.570;2022-11-18T05:02:40;2.85;;;2.30;;
37831;SDS011;23671;38.090;-122.570;2022-11-18T05:05:07;4.03;;;2.63;;
37831;SDS011;23671;38.090;-122.570;2022-11-18T05:07:34;5.82;;;2.50;;
37831;SDS011;23671;38.090;-122.570;2022-11-18T05:10:01;4.88;;;2.58;;
37831;SDS011;23671;38.090;-122.570;2022-11-18T05:12:28;4.70;;;3.03;;
37831;SDS011;23671;38.090;-122.570;2022-11-18T05:15:16;4.57;;;2.70;;
37831;SDS011;23671;38.090;-122.570;2022-11-18T05:17:45;5.93;;;2.72;;
37831;SDS011;23671;38.090;-122.570;2022-11-18T05:20:12;4.47;;;2.47;;
37831;SDS011;23671;38.090;-122.570;2022-11-18T05:22:39;4.93;;;2.80;;
37831;SDS011;23671;38.090;-122.570;2022-11-18T05:25:06;4.28;;;2.42;;
37831;SDS011;23671;38.090;-122.570;2022-11-18T05:27:34;3.22;;;2.40;;
37831;SDS011;23671;38.090;-122.570;2022-11-18T05:30:01;4.63;;;2.88;;
37831;SDS011;23671;38.090;-122.570;2022-11-18T05:32:28;4.30;;;2.83;;
37831;SDS011;23671;38.090;-122.570;2022-11-18T05:34:55;4.72;;;2.88;;
37831;SDS011;23671;38.090;-122.570;2022-11-18T05:37:22;4.00;;;2.70;;
37831;SDS011;23671;38.090;-122.570;2022-11-18T05:39:49;5.90;;;2.90;;
37831;SDS011;23671;38.090;-122.570;2022-11-18T05:42:16;5.07;;;3.28;;
37831;SDS011;23671;38.090;-122.570;2022-11-18T05:45:01;3.72;;;2.80;;
37831;SDS011;23671;38.090;-122.570;2022-11-18T05:47:29;5.50;;;3.20;;
37831;SDS011;23671;38.090;-122.570;2022-11-18T05:50:16;4.88;;;3.03;;
37831;SDS011;23671;38.090;-122.570;2022-11-18T05:52:43;5.65;;;4.00;;
37831;SDS011;23671;38.090;-122.570;2022-11-18T05:55:10;3.45;;;2.80;;
37831;SDS011;23671;38.090;-122.570;2022-11-18T05:57:38;4.70;;;2.67;;
37831;SDS011;23671;38.090;-122.570;2022-11-18T06:00:05;5.07;;;2.72;;
37831;SDS011;23671;38.090;-122.570;2022-11-18T06:02:33;5.53;;;3.08;;
37831;SDS011;23671;38.090;-122.570;2022-11-18T06:05:00;4.53;;;2.88;;
37831;SDS011;23671;38.090;-122.570;2022-11-18T06:07:33;5.78;;;3.00;;
37831;SDS011;23671;38.090;-122.570;2022-11-18T06:10:05;5.53;;;2.92;;
37831;SDS011;23671;38.090;-122.570;2022-11-18T06:12:39;5.85;;;3.50;;
37831;SDS011;23671;38.090;-122.570;2022-11-18T06:17:46;5.47;;;2.90;;
37831;SDS011;23671;38.090;-122.570;2022-11-18T06:20:18;3.95;;;3.00;;
37831;SDS011;23671;38.090;-122.570;2022-11-18T06:22:46;5.45;;;2.80;;
37831;SDS011;23671;38.090;-122.570;2022-11-18T06:25:15;5.35;;;2.83;;
37831;SDS011;23671;38.090;-122.570;2022-11-18T06:27:43;4.90;;;3.13;;
37831;SDS011;23671;38.090;-122.570;2022-11-18T06:30:12;6.67;;;3.50;;
37831;SDS011;23671;38.090;-122.570;2022-11-18T06:32:39;6.18;;;3.08;;
37831;SDS011;23671;38.090;-122.570;2022-11-18T06:35:06;4.95;;;3.30;;
37831;SDS011;23671;38.090;-122.570;2022-11-18T06:37:33;5.00;;;3.08;;
37831;SDS011;23671;38.090;-122.570;2022-11-18T06:40:00;3.88;;;2.45;;
37831;SDS011;23671;38.090;-122.570;2022-11-18T06:42:27;4.43;;;2.80;;
37831;SDS011;23671;38.090;-122.570;2022-11-18T06:45:13;3.70;;;2.80;;
37831;SDS011;23671;38.090;-122.570;2022-11-18T06:47:40;8.25;;;3.17;;
37831;SDS011;23671;38.090;-122.570;2022-11-18T06:50:07;5.72;;;3.13;;
37831;SDS011;23671;38.090;-122.570;2022-11-18T06:52:34;4.60;;;2.83;;
37831;SDS011;23671;38.090;-122.570;2022-11-18T06:55:01;4.18;;;2.55;;
37831;SDS011;23671;38.090;-122.570;2022-11-18T06:57:31;5.05;;;2.78;;
37831;SDS011;23671;38.090;-122.570;2022-11-18T06:59:59;5.60;;;3.35;;
37831;SDS011;23671;38.090;-122.570;2022-11-18T07:02:26;4.35;;;2.60;;
37831;SDS011;23671;38.090;-122.570;2022-11-18T07:04:53;5.22;;;2.78;;
37831;SDS011;23671;38.090;-122.570;2022-11-18T07:07:19;4.35;;;2.70;;
37831;SDS011;23671;38.090;-122.570;2022-11-18T07:09:46;4.15;;;2.40;;
37831;SDS011;23671;38.090;-122.570;2022-11-18T07:12:13;6.32;;;2.97;;
37831;SDS011;23671;38.090;-122.570;2022-11-18T07:14:40;4.93;;;2.42;;
37831;SDS011;23671;38.090;-122.570;2022-11-18T07:17:07;4.80;;;2.55;;
37831;SDS011;23671;38.090;-122.570;2022-11-18T07:19:34;3.80;;;2.58;;
37831;SDS011;23671;38.090;-122.570;2022-11-18T07:22:01;4.65;;;2.58;;
37831;SDS011;23671;38.090;-122.570;2022-11-18T07:24:28;4.50;;;2.78;;
37831;SDS011;23671;38.090;-122.570;2022-11-18T07:26:56;2.92;;;2.45;;
37831;SDS011;23671;38.090;-122.570;2022-11-18T07:29:23;4.03;;;2.70;;
37831;SDS011;23671;38.090;-122.570;2022-11-18T07:31:50;4.72;;;2.85;;
37831;SDS011;23671;38.090;-122.570;2022-11-18T07:34:16;5.47;;;2.65;;
37831;SDS011;23671;38.090;-122.570;2022-11-18T07:36:43;4.90;;;2.40;;
37831;SDS011;23671;38.090;-122.570;2022-11-18T07:39:10;4.88;;;2.70;;
37831;SDS011;23671;38.090;-122.570;2022-11-18T07:41:38;5.93;;;2.95;;
37831;SDS011;23671;38.090;-122.570;2022-11-18T07:44:05;5.13;;;2.20;;
37831;SDS011;23671;38.090;-122.570;2022-11-18T07:46:36;5.25;;;2.75;;
37831;SDS011;23671;38.090;-122.570;2022-11-18T07:49:04;4.75;;;2.42;;
37831;SDS011;23671;38.090;-122.570;2022-11-18T07:51:37;6.03;;;2.80;;
37831;SDS011;23671;38.090;-122.570;2022-11-18T07:54:08;3.75;;;2.75;;
37831;SDS011;23671;38.090;-122.570;2022-11-18T07:56:41;4.97;;;2.90;;
37831;SDS011;23671;38.090;-122.570;2022-11-18T07:59:08;4.28;;;2.28;;
37831;SDS011;23671;38.090;-122.570;2022-11-18T08:01:35;4.20;;;2.80;;
37831;SDS011;23671;38.090;-122.570;2022-11-18T08:04:06;4.38;;;2.50;;
37831;SDS011;23671;38.090;-122.570;2022-11-18T08:06:35;2.92;;;2.30;;
37831;SDS011;23671;38.090;-122.570;2022-11-18T08:09:03;3.58;;;2.47;;
37831;SDS011;23671;38.090;-122.570;2022-11-18T08:11:30;4.65;;;2.30;;
37831;SDS011;23671;38.090;-122.570;2022-11-18T08:13:57;4.43;;;2.42;;
37831;SDS011;23671;38.090;-122.570;2022-11-18T08:16:25;3.70;;;2.40;;
37831;SDS011;23671;38.090;-122.570;2022-11-18T08:18:52;3.65;;;2.55;;
37831;SDS011;23671;38.090;-122.570;2022-11-18T08:21:20;3.67;;;2.30;;
37831;SDS011;23671;38.090;-122.570;2022-11-18T08:23:51;3.90;;;2.60;;
37831;SDS011;23671;38.090;-122.570;2022-11-18T08:26:22;2.47;;;2.15;;
37831;SDS011;23671;38.090;-122.570;2022-11-18T08:28:49;3.78;;;2.08;;
37831;SDS011;23671;38.090;-122.570;2022-11-18T08:31:18;6.60;;;2.83;;
37831;SDS011;23671;38.090;-122.570;2022-11-18T08:33:52;3.92;;;2.33;;
37831;SDS011;23671;38.090;-122.570;2022-11-18T08:36:28;3.83;;;2.28;;
37831;SDS011;23671;38.090;-122.570;2022-11-18T08:41:28;4.05;;;2.45;;
37831;SDS011;23671;38.090;-122.570;2022-11-18T08:43:58;4.25;;;2.63;;
37831;SDS011;23671;38.090;-122.570;2022-11-18T08:46:27;3.88;;;2.55;;
37831;SDS011;23671;38.090;-122.570;2022-11-18T08:48:54;3.00;;;2.25;;
37831;SDS011;23671;38.090;-122.570;2022-11-18T08:51:22;4.47;;;2.75;;
37831;SDS011;23671;38.090;-122.570;2022-11-18T08:53:49;3.22;;;2.17;;
37831;SDS011;23671;38.090;-122.570;2022-11-18T08:56:17;3.78;;;2.53;;
37831;SDS011;23671;38.090;-122.570;2022-11-18T08:58:46;6.30;;;2.70;;
37831;SDS011;23671;38.090;-122.570;2022-11-18T09:01:13;4.00;;;2.40;;
37831;SDS011;23671;38.090;-122.570;2022-11-18T09:03:40;4.25;;;2.65;;
37831;SDS011;23671;38.090;-122.570;2022-11-18T09:06:17;4.80;;;2.50;;
37831;SDS011;23671;38.090;-122.570;2022-11-18T09:08:46;5.78;;;3.00;;
37831;SDS011;23671;38.090;-122.570;2022-11-18T09:11:14;4.43;;;2.35;;
37831;SDS011;23671;38.090;-122.570;2022-11-18T09:13:43;4.57;;;2.42;;
37831;SDS011;23671;38.090;-122.570;2022-11-18T09:16:11;5.20;;;2.42;;
37831;SDS011;23671;38.090;-122.570;2022-11-18T09:18:38;6.68;;;2.60;;
37831;SDS011;23671;38.090;-122.570;2022-11-18T09:21:06;4.75;;;2.50;;
37831;SDS011;23671;38.090;-122.570;2022-11-18T09:23:35;4.13;;;2.58;;
37831;SDS011;23671;38.090;-122.570;2022-11-18T09:26:04;4.60;;;2.60;;
37831;SDS011;23671;38.090;-122.570;2022-11-18T09:28:33;7.60;;;2.72;;
37831;SDS011;23671;38.090;-122.570;2022-11-18T09:31:04;3.42;;;2.10;;
37831;SDS011;23671;38.090;-122.570;2022-11-18T09:33:35;3.95;;;2.50;;
37831;SDS011;23671;38.090;-122.570;2022-11-18T09:36:05;5.90;;;2.90;;
37831;SDS011;23671;38.090;-122.570;2022-11-18T09:38:40;4.57;;;2.55;;
37831;SDS011;23671;38.090;-122.570;2022-11-18T09:46:53;3.00;;;2.15;;
37831;SDS011;23671;38.090;-122.570;2022-11-18T09:49:37;4.43;;;2.73;;
37831;SDS011;23671;38.090;-122.570;2022-11-18T09:52:17;4.30;;;2.78;;
37831;SDS011;23671;38.090;-122.570;2022-11-18T09:54:44;7.22;;;2.70;;
37831;SDS011;23671;38.090;-122.570;2022-11-18T09:57:16;4.15;;;2.72;;
37831;SDS011;23671;38.090;-122.570;2022-11-18T09:59:50;3.92;;;2.63;;
37831;SDS011;23671;38.090;-122.570;2022-11-18T10:02:37;3.53;;;2.70;;
37831;SDS011;23671;38.090;-122.570;2022-11-18T10:05:15;4.45;;;2.88;;
37831;SDS011;23671;38.090;-122.570;2022-11-18T10:10:16;4.00;;;2.50;;
37831;SDS011;23671;38.090;-122.570;2022-11-18T10:12:49;5.53;;;2.63;;
37831;SDS011;23671;38.090;-122.570;2022-11-18T10:15:31;3.63;;;2.60;;
37831;SDS011;23671;38.090;-122.570;2022-11-18T10:18:23;4.80;;;2.90;;
37831;SDS011;23671;38.090;-122.570;2022-11-18T10:21:28;5.65;;;3.47;;
37831;SDS011;23671;38.090;-122.570;2022-11-18T10:24:18;5.57;;;3.10;;
37831;SDS011;23671;38.090;-122.570;2022-11-18T10:29:18;5.63;;;3.28;;
37831;SDS011;23671;38.090;-122.570;2022-11-18T10:34:28;8.88;;;3.55;;
37831;SDS011;23671;38.090;-122.570;2022-11-18T10:37:01;6.60;;;3.65;;
37831;SDS011;23671;38.090;-122.570;2022-11-18T10:39:30;7.78;;;3.88;;
37831;SDS011;23671;38.090;-122.570;2022-11-18T10:42:04;5.97;;;3.22;;
37831;SDS011;23671;38.090;-122.570;2022-11-18T10:44:40;5.90;;;3.33;;
37831;SDS011;23671;38.090;-122.570;2022-11-18T10:47:15;6.45;;;3.58;;
37831;SDS011;23671;38.090;-122.570;2022-11-18T10:49:49;5.85;;;3.28;;
37831;SDS011;23671;38.090;-122.570;2022-11-18T10:52:17;6.32;;;3.42;;
37831;SDS011;23671;38.090;-122.570;2022-11-18T10:54:44;6.75;;;3.00;;
37831;SDS011;23671;38.090;-122.570;2022-11-18T10:57:29;5.28;;;3.08;;
37831;SDS011;23671;38.090;-122.570;2022-11-18T11:00:03;6.07;;;3.33;;
37831;SDS011;23671;38.090;-122.570;2022-11-18T11:02:39;6.93;;;3.30;;
37831;SDS011;23671;38.090;-122.570;2022-11-18T11:05:19;5.43;;;3.35;;
37831;SDS011;23671;38.090;-122.570;2022-11-18T11:08:01;5.60;;;3.33;;
37831;SDS011;23671;38.090;-122.570;2022-11-18T11:10:56;7.65;;;3.78;;
37831;SDS011;23671;38.090;-122.570;2022-11-18T11:13:27;7.28;;;3.40;;
37831;SDS011;23671;38.090;-122.570;2022-11-18T11:15:58;5.32;;;2.72;;
37831;SDS011;23671;38.090;-122.570;2022-11-18T11:18:31;5.22;;;3.17;;
37831;SDS011;23671;38.090;-122.570;2022-11-18T11:23:37;6.05;;;3.25;;
37831;SDS011;23671;38.090;-122.570;2022-11-18T11:28:50;7.25;;;3.40;;
37831;SDS011;23671;38.090;-122.570;2022-11-18T11:34:43;5.85;;;3.05;;
37831;SDS011;23671;38.090;-122.570;2022-11-18T11:54:31;4.13;;;2.63;;
37831;SDS011;23671;38.090;-122.570;2022-11-18T12:05:06;5.38;;;3.85;;
37831;SDS011;23671;38.090;-122.570;2022-11-18T12:07:54;3.70;;;2.75;;
37831;SDS011;23671;38.090;-122.570;2022-11-18T12:10:43;4.82;;;2.97;;
37831;SDS011;23671;38.090;-122.570;2022-11-18T12:13:34;6.63;;;2.60;;
37831;SDS011;23671;38.090;-122.570;2022-11-18T12:29:36;4.30;;;2.63;;
37831;SDS011;23671;38.090;-122.570;2022-11-18T12:40:35;5.50;;;2.50;;
37831;SDS011;23671;38.090;-122.570;2022-11-18T12:46:46;2.53;;;1.90;;
37831;SDS011;23671;38.090;-122.570;2022-11-18T12:51:50;3.13;;;2.10;;
37831;SDS011;23671;38.090;-122.570;2022-11-18T12:54:26;3.30;;;1.95;;
37831;SDS011;23671;38.090;-122.570;2022-11-18T12:56:58;4.35;;;2.30;;
37831;SDS011;23671;38.090;-122.570;2022-11-18T12:59:36;4.25;;;2.20;;
37831;SDS011;23671;38.090;-122.570;2022-11-18T13:04:39;3.10;;;2.03;;
37831;SDS011;23671;38.090;-122.570;2022-11-18T13:07:08;3.75;;;2.30;;
37831;SDS011;23671;38.090;-122.570;2022-11-18T13:09:55;3.83;;;2.00;;
37831;SDS011;23671;38.090;-122.570;2022-11-18T13:12:26;3.53;;;2.40;;
37831;SDS011;23671;38.090;-122.570;2022-11-18T13:14:55;3.75;;;2.05;;
37831;SDS011;23671;38.090;-122.570;2022-11-18T13:17:41;4.38;;;2.10;;
37831;SDS011;23671;38.090;-122.570;2022-11-18T13:20:35;3.80;;;2.10;;
37831;SDS011;23671;38.090;-122.570;2022-11-18T13:25:51;3.35;;;1.80;;
37831;SDS011;23671;38.090;-122.570;2022-11-18T13:31:20;2.78;;;2.20;;
37831;SDS011;23671;38.090;-122.570;2022-11-18T13:33:48;2.70;;;1.77;;
37831;SDS011;23671;38.090;-122.570;2022-11-18T13:36:17;2.78;;;1.58;;
37831;SDS011;23671;38.090;-122.570;2022-11-18T13:41:25;2.67;;;1.83;;
37831;SDS011;23671;38.090;-122.570;2022-11-18T13:44:16;4.05;;;2.17;;
37831;SDS011;23671;38.090;-122.570;2022-11-18T13:46:48;2.67;;;1.90;;
37831;SDS011;23671;38.090;-122.570;2022-11-18T13:49:23;2.42;;;1.83;;
37831;SDS011;23671;38.090;-122.570;2022-11-18T13:52:13;3.25;;;2.10;;
37831;SDS011;23671;38.090;-122.570;2022-11-18T13:54:46;3.78;;;1.65;;
37831;SDS011;23671;38.090;-122.570;2022-11-18T13:57:17;2.75;;;1.77;;
37831;SDS011;23671;38.090;-122.570;2022-11-18T13:59:46;3.17;;;1.95;;
37831;SDS011;23671;38.090;-122.570;2022-11-18T14:02:15;2.92;;;1.70;;
37831;SDS011;23671;38.090;-122.570;2022-11-18T14:04:53;2.58;;;1.80;;
37831;SDS011;23671;38.090;-122.570;2022-11-18T14:09:52;1.80;;;1.40;;
37831;SDS011;23671;38.090;-122.570;2022-11-18T14:12:26;3.72;;;1.98;;
37831;SDS011;23671;38.090;-122.570;2022-11-18T14:15:13;2.53;;;1.80;;
37831;SDS011;23671;38.090;-122.570;2022-11-18T14:17:57;2.05;;;1.85;;
37831;SDS011;23671;38.090;-122.570;2022-11-18T14:20:27;2.08;;;1.70;;
37831;SDS011;23671;38.090;-122.570;2022-11-18T14:22:59;2.97;;;2.13;;
37831;SDS011;23671;38.090;-122.570;2022-11-18T14:30:59;2.08;;;1.45;;
37831;SDS011;23671;38.090;-122.570;2022-11-18T14:33:34;1.90;;;1.70;;
37831;SDS011;23671;38.090;-122.570;2022-11-18T14:36:08;1.92;;;1.60;;
37831;SDS011;23671;38.090;-122.570;2022-11-18T14:41:07;2.03;;;1.60;;
37831;SDS011;23671;38.090;-122.570;2022-11-18T14:43:36;3.50;;;2.22;;
37831;SDS011;23671;38.090;-122.570;2022-11-18T14:46:16;2.53;;;1.73;;
37831;SDS011;23671;38.090;-122.570;2022-11-18T14:48:45;2.55;;;1.88;;
37831;SDS011;23671;38.090;-122.570;2022-11-18T14:51:13;1.98;;;1.60;;
37831;SDS011;23671;38.090;-122.570;2022-11-18T14:53:41;2.15;;;1.70;;
37831;SDS011;23671;38.090;-122.570;2022-11-18T14:56:13;2.03;;;1.80;;
37831;SDS011;23671;38.090;-122.570;2022-11-18T14:58:48;1.67;;;1.45;;
37831;SDS011;23671;38.090;-122.570;2022-11-18T15:01:15;2.65;;;2.10;;
37831;SDS011;23671;38.090;-122.570;2022-11-18T15:03:42;3.13;;;1.60;;
37831;SDS011;23671;38.090;-122.570;2022-11-18T15:06:12;2.67;;;1.48;;
37831;SDS011;23671;38.090;-122.570;2022-11-18T15:08:41;2.45;;;1.88;;
37831;SDS011;23671;38.090;-122.570;2022-11-18T15:11:10;2.40;;;1.73;;
37831;SDS011;23671;38.090;-122.570;2022-11-18T15:13:38;2.17;;;1.60;;
37831;SDS011;23671;38.090;-122.570;2022-11-18T15:16:18;4.88;;;1.88;;
37831;SDS011;23671;38.090;-122.570;2022-11-18T15:18:51;2.50;;;1.70;;
37831;SDS011;23671;38.090;-122.570;2022-11-18T15:23:46;2.78;;;1.42;;
37831;SDS011;23671;38.090;-122.570;2022-11-18T15:28:50;2.58;;;1.60;;
37831;SDS011;23671;38.090;-122.570;2022-11-18T15:31:19;2.13;;;1.52;;
37831;SDS011;23671;38.090;-122.570;2022-11-18T15:33:47;4.72;;;1.77;;
37831;SDS011;23671;38.090;-122.570;2022-11-18T15:36:25;2.08;;;1.58;;
37831;SDS011;23671;38.090;-122.570;2022-11-18T15:38:53;2.10;;;1.63;;
37831;SDS011;23671;38.090;-122.570;2022-11-18T15:41:21;4.38;;;1.92;;
37831;SDS011;23671;38.090;-122.570;2022-11-18T15:43:50;1.58;;;1.48;;
37831;SDS011;23671;38.090;-122.570;2022-11-18T15:46:19;2.17;;;1.70;;
37831;SDS011;23671;38.090;-122.570;2022-11-18T15:48:49;2.38;;;1.80;;
37831;SDS011;23671;38.090;-122.570;2022-11-18T15:51:20;2.05;;;1.58;;
37831;SDS011;23671;38.090;-122.570;2022-11-18T15:53:48;1.77;;;1.45;;
37831;SDS011;23671;38.090;-122.570;2022-11-18T15:58:52;2.97;;;2.10;;
37831;SDS011;23671;38.090;-122.570;2022-11-18T16:01:28;1.60;;;1.45;;
37831;SDS011;23671;38.090;-122.570;2022-11-18T16:03:57;2.58;;;1.55;;
37831;SDS011;23671;38.090;-122.570;2022-11-18T16:06:24;2.65;;;1.70;;
37831;SDS011;23671;38.090;-122.570;2022-11-18T16:08:51;1.40;;;1.25;;
37831;SDS011;23671;38.090;-122.570;2022-11-18T16:11:19;2.90;;;1.48;;
37831;SDS011;23671;38.090;-122.570;2022-11-18T16:14:05;4.03;;;1.95;;
37831;SDS011;23671;38.090;-122.570;2022-11-18T16:16:34;2.20;;;1.77;;
37831;SDS011;23671;38.090;-122.570;2022-11-18T16:19:03;2.38;;;1.63;;
37831;SDS011;23671;38.090;-122.570;2022-11-18T16:21:33;3.65;;;1.70;;
37831;SDS011;23671;38.090;-122.570;2022-11-18T16:24:02;2.45;;;1.70;;
37831;SDS011;23671;38.090;-122.570;2022-11-18T16:26:31;1.33;;;1.20;;
37831;SDS011;23671;38.090;-122.570;2022-11-18T16:28:59;3.00;;;1.77;;
37831;SDS011;23671;38.090;-122.570;2022-11-18T16:31:26;2.72;;;1.65;;
37831;SDS011;23671;38.090;-122.570;2022-11-18T16:34:09;3.28;;;1.60;;
37831;SDS011;23671;38.090;-122.570;2022-11-18T16:36:39;2.10;;;1.60;;
37831;SDS011;23671;38.090;-122.570;2022-11-18T16:39:17;1.63;;;1.50;;
37831;SDS011;23671;38.090;-122.570;2022-11-18T16:41:49;4.17;;;1.80;;
37831;SDS011;23671;38.090;-122.570;2022-11-18T16:44:17;1.73;;;1.58;;
37831;SDS011;23671;38.090;-122.570;2022-11-18T16:46:46;2.67;;;1.70;;